Hovedside
METAR-TAF:

METAR-TAF

Lufthavner :

Antonio B. Won Pat internasjonale lufthavn

Hagåtña, Guam, USA

breddegrad: 13-29N, lengdegrad: 144-48E, høyde over havet: 91 m

Gjeldene værobservasjon

Denne rapporten ble laget for 44 minutter siden, klokken 01:54 UTC
Vind 9 kt fra Øst
Temperatur 32°C
Luftfuktighet 67%
Trykk 1013 hPa
Sikt: 16.1 km
Få skyer i en høyde av 2700 ft

METAR: PGUM 230154Z 09009KT 10SM FEW027 32/25 A2992 RMK AO2 SLP121 T03220250

Tid: 12:38 (02:38 UTC)

Varsel

Denne rapporten ble laget for 3 timer og 18 minutter siden, klokken 23:20 UTC
Varsel gyldig fra 23. klokken 00 UTC til 24. klokken 06 UTC
Vind 11 kt fra Øst
Sikt: 10 km
Få skyer i en høyde av 2000 ft
Spredte skyer i en høyde av 5000 ft

TAF: PGUM 222320Z 2300/2406 09011KT P6SM FEW020 SCT050

Værobservasjoner og værvarsel for over 4000 flyplasser (METAR- og TAF-rapporter).

Tilgjengelige stasjoner er representert av de røde og gule prikkene på kartet.

Hold musepekeren over prikken for å se navnet på stasjonen.

Klikk så for å se værobservasjoner og -varsler.

For å forandre kartet kan du klikke på den grønne knappen med svart kryss for å zoome inn, på den grønne knappen med strek for å zoome ut, eller på de grønne pilene for å se tilstøtende kart.


METAR-TAF: